createdAt,value
2022-07-28T00:01:00.109Z,11.70
2022-07-28T00:03:28.063Z,12.57
2022-07-28T00:05:55.778Z,14.52
2022-07-28T00:08:24.712Z,15.13
2022-07-28T00:10:53.391Z,14.40
2022-07-28T00:13:23.533Z,14.90
2022-07-28T00:15:55.885Z,13.52
2022-07-28T00:18:23.622Z,15.63
2022-07-28T00:20:51.324Z,15.40
2022-07-28T00:23:21.716Z,15.13
2022-07-28T00:25:49.426Z,17.13
2022-07-28T00:28:17.092Z,17.02
2022-07-28T00:30:44.785Z,17.52
2022-07-28T00:33:12.489Z,18.25
2022-07-28T00:35:40.175Z,17.08
2022-07-28T00:38:18.593Z,17.80
2022-07-28T00:41:05.081Z,17.70
2022-07-28T00:43:33.620Z,17.95
2022-07-28T00:46:02.976Z,15.98
2022-07-28T00:48:31.034Z,16.20
2022-07-28T00:50:58.676Z,18.52
2022-07-28T00:53:26.777Z,18.20
2022-07-28T00:56:05.919Z,18.48
2022-07-28T00:58:35.507Z,19.92
2022-07-28T01:01:07.454Z,20.13
2022-07-28T01:03:42.256Z,21.00
2022-07-28T01:06:32.710Z,20.30
2022-07-28T01:09:13.195Z,21.08
2022-07-28T01:11:45.198Z,20.63
2022-07-28T01:14:24.156Z,18.00
2022-07-28T01:17:11.368Z,18.08
2022-07-28T01:19:49.291Z,21.00
2022-07-28T01:22:20.504Z,16.48
2022-07-28T01:28:25.382Z,18.92
2022-07-28T01:31:00.739Z,15.70
2022-07-28T01:33:35.409Z,16.40
2022-07-28T01:36:09.913Z,16.38
2022-07-28T01:38:37.723Z,17.90
2022-07-28T01:41:09.326Z,20.98
2022-07-28T01:43:38.397Z,20.33
2022-07-28T01:46:06.194Z,23.60
2022-07-28T01:48:34.283Z,17.65
2022-07-28T01:51:09.209Z,17.65
2022-07-28T01:53:37.837Z,17.77
2022-07-28T01:56:05.968Z,20.40
2022-07-28T01:58:34.066Z,22.50
2022-07-28T02:01:01.765Z,20.30
2022-07-28T02:03:29.889Z,18.63
2022-07-28T02:05:57.606Z,17.67
2022-07-28T02:08:25.541Z,20.90
2022-07-28T02:11:12.158Z,21.10
2022-07-28T02:13:40.563Z,20.17
2022-07-28T02:16:09.184Z,19.80
2022-07-28T02:18:37.059Z,20.83
2022-07-28T02:21:05.324Z,19.60
2022-07-28T02:23:33.869Z,21.02
2022-07-28T02:26:01.940Z,21.70
2022-07-28T02:28:35.033Z,22.20
2022-07-28T02:31:05.646Z,21.42
2022-07-28T02:33:58.975Z,22.98
2022-07-28T02:36:29.749Z,21.85
2022-07-28T02:39:06.674Z,22.38
2022-07-28T02:41:38.609Z,23.30
2022-07-28T02:44:16.288Z,25.08
2022-07-28T02:46:49.304Z,24.13
2022-07-28T02:49:21.590Z,22.33
2022-07-28T02:51:49.645Z,21.08
2022-07-28T02:54:17.870Z,21.35
2022-07-28T02:56:53.278Z,19.40
2022-07-28T02:59:21.944Z,18.33
2022-07-28T03:01:49.912Z,17.77
2022-07-28T03:04:42.457Z,18.52
2022-07-28T03:07:10.980Z,18.65
2022-07-28T03:09:45.895Z,17.95
2022-07-28T03:12:14.647Z,17.33
2022-07-28T03:14:43.336Z,19.02
2022-07-28T03:17:11.773Z,17.33
2022-07-28T03:19:40.166Z,17.52
2022-07-28T03:22:10.359Z,16.73
2022-07-28T03:24:39.585Z,17.88
2022-07-28T03:27:13.701Z,19.20
2022-07-28T03:29:41.994Z,20.67
2022-07-28T03:32:10.051Z,21.15
2022-07-28T03:34:38.292Z,20.95
2022-07-28T03:37:12.179Z,21.05
2022-07-28T03:39:45.419Z,22.10
2022-07-28T03:42:13.294Z,20.90
2022-07-28T03:44:41.061Z,21.40
2022-07-28T03:47:12.259Z,19.42
2022-07-28T03:49:40.209Z,22.85
2022-07-28T03:52:07.971Z,24.05
2022-07-28T03:54:37.341Z,21.08
2022-07-28T03:57:05.075Z,20.23
2022-07-28T03:59:33.074Z,22.95
2022-07-28T04:02:01.767Z,21.05
2022-07-28T04:04:29.661Z,19.92
2022-07-28T04:06:57.452Z,18.65
2022-07-28T04:09:25.171Z,22.02
2022-07-28T04:11:52.881Z,21.95
2022-07-28T04:14:22.168Z,22.77
2022-07-28T04:16:50.138Z,20.02
2022-07-28T04:19:18.318Z,21.73
2022-07-28T04:21:46.399Z,21.33
2022-07-28T04:24:16.775Z,20.38
2022-07-28T04:26:44.870Z,18.48
2022-07-28T04:29:13.001Z,19.05
2022-07-28T04:31:40.699Z,19.52
2022-07-28T04:34:08.474Z,19.98
2022-07-28T04:36:42.333Z,19.10
2022-07-28T04:39:11.669Z,16.50
2022-07-28T04:41:41.686Z,17.35
2022-07-28T04:44:12.295Z,16.95
2022-07-28T04:46:40.438Z,16.08
2022-07-28T04:49:09.612Z,14.48
2022-07-28T04:51:38.194Z,15.27
2022-07-28T04:54:05.932Z,14.35
2022-07-28T04:56:34.089Z,13.88
2022-07-28T04:59:02.670Z,13.60
2022-07-28T05:01:32.495Z,14.10
2022-07-28T05:04:00.495Z,12.77
2022-07-28T05:06:28.355Z,13.27
2022-07-28T05:08:56.331Z,12.90
2022-07-28T05:11:25.268Z,13.85
2022-07-28T05:13:53.579Z,13.88
2022-07-28T05:16:21.363Z,15.57
2022-07-28T05:18:49.562Z,13.98
2022-07-28T05:21:17.242Z,13.05
2022-07-28T05:23:50.671Z,12.13
2022-07-28T05:26:18.417Z,11.38
2022-07-28T05:28:46.179Z,10.80
2022-07-28T05:31:14.612Z,7.95
2022-07-28T05:33:42.433Z,7.78
2022-07-28T05:36:11.505Z,7.28
2022-07-28T05:38:39.310Z,7.55
2022-07-28T05:41:06.969Z,7.78
2022-07-28T05:43:38.111Z,9.30
2022-07-28T05:46:05.832Z,6.82
2022-07-28T05:48:34.070Z,6.90
2022-07-28T05:51:02.636Z,7.47
2022-07-28T05:53:30.580Z,8.55
2022-07-28T05:56:00.364Z,7.50
2022-07-28T05:58:31.069Z,8.57
2022-07-28T06:01:00.378Z,7.38
2022-07-28T06:03:32.154Z,5.90
2022-07-28T06:06:15.713Z,7.32
2022-07-28T06:08:47.802Z,7.13
2022-07-28T06:11:21.954Z,7.03
2022-07-28T06:13:52.192Z,10.32
2022-07-28T06:16:24.534Z,5.50
2022-07-28T06:18:52.711Z,7.15
2022-07-28T06:21:24.809Z,8.27
2022-07-28T06:23:53.106Z,8.82
2022-07-28T06:26:23.535Z,8.55
2022-07-28T06:28:52.178Z,8.98
2022-07-28T06:31:22.804Z,7.72
2022-07-28T06:33:51.114Z,8.82
2022-07-28T06:36:18.779Z,7.93
2022-07-28T06:38:46.479Z,10.00
2022-07-28T06:41:14.131Z,28.20
2022-07-28T06:43:41.922Z,9.73
2022-07-28T06:46:09.899Z,9.07
2022-07-28T06:48:39.654Z,9.38
2022-07-28T06:51:07.524Z,8.77
2022-07-28T06:53:35.388Z,8.45
2022-07-28T06:56:05.503Z,7.95
2022-07-28T06:58:33.787Z,7.68
2022-07-28T07:01:02.846Z,8.25
2022-07-28T07:03:32.090Z,7.07
2022-07-28T07:05:59.818Z,7.18
2022-07-28T07:08:27.605Z,7.68
2022-07-28T07:10:55.385Z,6.55
2022-07-28T07:13:23.197Z,6.80
2022-07-28T07:15:52.862Z,6.97
2022-07-28T07:18:20.660Z,6.20
2022-07-28T07:20:49.299Z,6.82
2022-07-28T07:23:17.147Z,6.55
2022-07-28T07:25:45.233Z,6.70
2022-07-28T07:28:12.976Z,5.75
2022-07-28T07:30:41.620Z,6.07
2022-07-28T07:33:09.684Z,6.38
2022-07-28T07:35:38.692Z,6.53
2022-07-28T07:38:06.569Z,6.45
2022-07-28T07:40:35.390Z,6.28
2022-07-28T07:43:03.203Z,6.30
2022-07-28T07:45:31.054Z,6.47
2022-07-28T07:48:02.319Z,6.35
2022-07-28T07:50:31.441Z,6.55
2022-07-28T07:52:59.163Z,6.65
2022-07-28T07:55:28.242Z,6.22
2022-07-28T07:58:04.180Z,5.57
2022-07-28T08:00:32.014Z,5.80
2022-07-28T08:03:00.618Z,5.90
2022-07-28T08:05:35.584Z,5.78
2022-07-28T08:08:05.297Z,5.85
2022-07-28T08:10:35.644Z,5.53
2022-07-28T08:13:04.410Z,5.28
2022-07-28T08:15:32.577Z,5.43
2022-07-28T08:18:02.943Z,5.07
2022-07-28T08:20:30.557Z,5.00
2022-07-28T08:22:58.956Z,4.90
2022-07-28T08:25:27.432Z,4.90
2022-07-28T08:27:55.741Z,4.50
2022-07-28T08:30:26.330Z,4.47
2022-07-28T08:32:57.865Z,4.65
2022-07-28T08:35:35.171Z,4.82
2022-07-28T08:38:04.816Z,5.03
2022-07-28T08:40:32.953Z,5.18
2022-07-28T08:43:09.074Z,4.75
2022-07-28T08:45:37.258Z,5.30
2022-07-28T08:48:08.603Z,5.40
2022-07-28T08:50:38.612Z,4.90
2022-07-28T08:53:06.927Z,5.40
2022-07-28T08:55:38.477Z,5.00
2022-07-28T08:58:06.212Z,5.05
2022-07-28T09:00:34.391Z,5.00
2022-07-28T09:03:03.476Z,5.20
2022-07-28T09:05:32.296Z,4.80
2022-07-28T09:08:01.683Z,4.90
2022-07-28T09:10:29.605Z,5.10
2022-07-28T09:13:17.389Z,5.28
2022-07-28T09:15:48.922Z,5.25
2022-07-28T09:18:17.722Z,5.28
2022-07-28T09:23:41.960Z,5.00
2022-07-28T09:26:11.363Z,4.90
2022-07-28T09:28:57.079Z,5.35
2022-07-28T09:31:26.758Z,5.40
2022-07-28T09:34:02.179Z,4.80
2022-07-28T09:36:39.549Z,5.60
2022-07-28T09:39:07.481Z,5.30
2022-07-28T09:41:55.394Z,5.35
2022-07-28T09:44:23.634Z,5.13
2022-07-28T09:46:51.493Z,5.03
2022-07-28T09:49:21.074Z,5.07
2022-07-28T09:52:04.267Z,5.25
2022-07-28T09:54:31.934Z,5.43
2022-07-28T09:57:00.845Z,4.78
2022-07-28T09:59:45.460Z,5.38
2022-07-28T10:02:28.079Z,4.88
2022-07-28T10:05:00.311Z,5.20
2022-07-28T10:07:31.434Z,5.30
2022-07-28T10:10:08.846Z,4.80
2022-07-28T10:12:38.793Z,5.35
2022-07-28T10:15:36.268Z,5.20
2022-07-28T10:18:05.080Z,5.20
2022-07-28T10:20:34.171Z,4.80
2022-07-28T10:23:03.728Z,5.70
2022-07-28T10:25:33.234Z,5.30
2022-07-28T10:28:01.494Z,5.13
2022-07-28T10:30:34.638Z,4.85
2022-07-28T10:33:03.478Z,5.80
2022-07-28T10:35:31.117Z,5.78
2022-07-28T10:38:00.964Z,5.97
2022-07-28T10:40:32.295Z,5.88
2022-07-28T10:43:00.469Z,6.53
2022-07-28T10:45:48.006Z,6.22
2022-07-28T10:48:16.001Z,6.05
2022-07-28T10:50:43.961Z,6.75
2022-07-28T10:53:12.207Z,7.80
2022-07-28T10:55:42.913Z,6.90
2022-07-28T10:58:35.253Z,6.18
2022-07-28T11:01:06.226Z,7.05
2022-07-28T11:03:34.382Z,6.90
2022-07-28T11:06:29.703Z,6.55
2022-07-28T11:08:58.930Z,6.53
2022-07-28T11:11:46.178Z,6.07
2022-07-28T11:14:24.447Z,6.57
2022-07-28T11:17:24.307Z,6.05
2022-07-28T11:22:52.019Z,5.75
2022-07-28T11:25:22.316Z,5.85
2022-07-28T11:27:51.022Z,6.03
2022-07-28T11:30:19.542Z,6.35
2022-07-28T11:32:56.450Z,6.30
2022-07-28T11:35:27.551Z,6.25
2022-07-28T11:38:01.685Z,6.60
2022-07-28T11:40:33.407Z,7.05
2022-07-28T11:43:35.743Z,8.27
2022-07-28T11:46:09.388Z,8.30
2022-07-28T11:48:45.327Z,8.93
2022-07-28T11:51:13.492Z,9.55
2022-07-28T11:53:53.681Z,10.73
2022-07-28T11:56:36.277Z,9.25
2022-07-28T11:59:07.431Z,9.65
2022-07-28T12:01:38.877Z,10.00
2022-07-28T12:04:12.011Z,9.82
2022-07-28T12:06:49.399Z,10.50
2022-07-28T12:09:25.237Z,11.13
2022-07-28T12:11:56.027Z,10.68
2022-07-28T12:14:24.273Z,11.97
2022-07-28T12:16:52.376Z,11.55
2022-07-28T12:19:32.923Z,12.45
2022-07-28T12:22:00.901Z,14.63
2022-07-28T12:24:30.070Z,16.95
2022-07-28T12:26:58.565Z,16.55
2022-07-28T12:29:35.767Z,15.85
2022-07-28T12:32:05.529Z,19.13
2022-07-28T12:34:35.234Z,13.00
2022-07-28T12:37:04.841Z,9.77
2022-07-28T12:39:37.010Z,8.45
2022-07-28T12:42:05.712Z,8.05
2022-07-28T12:44:43.550Z,16.15
2022-07-28T12:47:13.307Z,23.00
2022-07-28T12:49:42.483Z,18.90
2022-07-28T12:52:24.822Z,14.90
2022-07-28T12:54:55.677Z,13.60
2022-07-28T12:57:49.192Z,12.13
2022-07-28T13:00:32.063Z,13.55
2022-07-28T13:03:01.224Z,14.18
2022-07-28T13:05:54.597Z,12.63
2022-07-28T13:08:23.878Z,11.40
2022-07-28T13:10:59.157Z,9.10
2022-07-28T13:13:27.049Z,9.38
2022-07-28T13:16:21.264Z,8.70
2022-07-28T13:18:54.351Z,8.38
2022-07-28T13:21:58.195Z,7.40
2022-07-28T13:24:28.120Z,6.32
2022-07-28T13:26:56.131Z,5.10
2022-07-28T13:29:23.979Z,4.70
2022-07-28T13:31:52.414Z,8.82
2022-07-28T13:34:20.238Z,11.30
2022-07-28T13:36:48.139Z,7.90
2022-07-28T13:39:16.037Z,5.28
2022-07-28T13:41:56.642Z,6.07
2022-07-28T13:44:28.682Z,8.75
2022-07-28T13:46:58.890Z,12.20
2022-07-28T13:49:28.764Z,12.82
2022-07-28T13:51:58.093Z,14.10
2022-07-28T13:54:30.126Z,14.38
2022-07-28T13:57:00.174Z,15.38
2022-07-28T13:59:30.691Z,13.63
2022-07-28T14:02:06.356Z,10.30
2022-07-28T14:04:45.964Z,7.50
2022-07-28T14:07:25.228Z,7.35
2022-07-28T14:09:57.329Z,8.90
2022-07-28T14:12:33.580Z,12.10
2022-07-28T14:15:07.825Z,9.38
2022-07-28T14:17:43.254Z,14.07
2022-07-28T14:20:18.280Z,26.38
2022-07-28T14:22:51.103Z,13.45
2022-07-28T14:25:25.749Z,14.23
2022-07-28T14:27:57.706Z,32.40
2022-07-28T14:30:30.136Z,26.50
2022-07-28T14:33:01.366Z,24.20
2022-07-28T14:35:32.315Z,21.17
2022-07-28T14:40:53.082Z,13.35
2022-07-28T14:43:22.794Z,16.08
2022-07-28T14:46:12.234Z,18.80
2022-07-28T14:48:43.302Z,14.68
2022-07-28T14:51:14.425Z,12.77
2022-07-28T14:53:51.764Z,12.48
2022-07-28T14:56:26.755Z,9.57
2022-07-28T14:58:55.906Z,6.63
2022-07-28T15:01:25.550Z,5.75
2022-07-28T15:03:53.501Z,5.75
2022-07-28T15:06:22.503Z,5.50
2022-07-28T15:08:51.178Z,5.32
2022-07-28T15:11:21.492Z,4.80
2022-07-28T15:13:57.105Z,4.93
2022-07-28T15:16:32.756Z,5.30
2022-07-28T15:19:03.338Z,4.90
2022-07-28T15:21:37.685Z,5.07
2022-07-28T15:24:11.604Z,4.93
2022-07-28T15:26:40.541Z,5.13
2022-07-28T15:29:08.483Z,4.70
2022-07-28T15:34:11.098Z,4.70
2022-07-28T15:36:46.249Z,5.00
2022-07-28T15:39:17.529Z,4.40
2022-07-28T15:41:48.098Z,5.47
2022-07-28T15:44:22.369Z,5.63
2022-07-28T15:46:57.367Z,5.35
2022-07-28T15:49:27.831Z,5.65
2022-07-28T15:51:57.818Z,5.22
2022-07-28T15:54:26.002Z,5.13
2022-07-28T15:56:54.236Z,6.20
2022-07-28T15:59:24.404Z,5.38
2022-07-28T16:01:54.263Z,5.95
2022-07-28T16:04:22.157Z,6.05
2022-07-28T16:07:10.611Z,6.07
2022-07-28T16:09:45.864Z,6.97
2022-07-28T16:12:14.816Z,6.85
2022-07-28T16:14:44.572Z,6.90
2022-07-28T16:17:12.920Z,6.10
2022-07-28T16:19:49.833Z,4.97
2022-07-28T16:22:19.365Z,4.78
2022-07-28T16:24:47.578Z,4.25
2022-07-28T16:27:15.966Z,4.35
2022-07-28T16:29:45.205Z,4.35
2022-07-28T16:32:13.883Z,4.70
2022-07-28T16:34:45.017Z,4.38
2022-07-28T16:37:17.507Z,4.22
2022-07-28T16:39:48.281Z,3.67
2022-07-28T16:42:17.443Z,3.53
2022-07-28T16:44:45.711Z,4.00
2022-07-28T16:47:14.464Z,4.93
2022-07-28T16:49:46.221Z,3.70
2022-07-28T16:52:15.825Z,4.75
2022-07-28T16:54:44.092Z,4.32
2022-07-28T16:57:13.688Z,3.83
2022-07-28T16:59:48.288Z,3.95
2022-07-28T17:02:18.566Z,4.63
2022-07-28T17:04:47.305Z,4.22
2022-07-28T17:07:17.425Z,4.30
2022-07-28T17:09:45.235Z,4.10
2022-07-28T17:12:15.057Z,4.60
2022-07-28T17:14:43.607Z,4.50
2022-07-28T17:17:16.159Z,4.80
2022-07-28T17:19:47.861Z,4.85
2022-07-28T17:22:16.057Z,4.87
2022-07-28T17:24:43.886Z,5.45
2022-07-28T17:30:00.102Z,19.45
2022-07-28T17:32:28.168Z,7.75
2022-07-28T17:34:55.971Z,9.27
2022-07-28T17:37:29.828Z,6.68
2022-07-28T17:39:59.352Z,6.88
2022-07-28T17:42:27.133Z,6.25
2022-07-28T17:44:56.870Z,6.38
2022-07-28T17:47:35.637Z,6.72
2022-07-28T17:50:07.214Z,6.60
2022-07-28T17:52:35.041Z,6.65
2022-07-28T17:55:24.005Z,6.72
2022-07-28T17:57:53.752Z,6.63
2022-07-28T18:00:22.130Z,6.75
2022-07-28T18:02:50.098Z,7.40
2022-07-28T18:05:20.478Z,6.13
2022-07-28T18:07:51.024Z,6.10
2022-07-28T18:10:24.664Z,6.70
2022-07-28T18:12:53.741Z,7.00
2022-07-28T18:15:21.960Z,6.03
2022-07-28T18:17:54.920Z,5.63
2022-07-28T18:20:29.805Z,6.45
2022-07-28T18:22:57.864Z,7.13
2022-07-28T18:25:26.175Z,7.18
2022-07-28T18:27:58.569Z,6.20
2022-07-28T18:30:26.526Z,6.55
2022-07-28T18:32:54.711Z,7.03
2022-07-28T18:35:22.733Z,6.40
2022-07-28T18:37:51.956Z,5.55
2022-07-28T18:40:21.669Z,5.38
2022-07-28T18:42:50.447Z,6.05
2022-07-28T18:45:18.794Z,5.75
2022-07-28T18:47:47.893Z,6.55
2022-07-28T18:50:30.210Z,6.95
2022-07-28T18:52:59.558Z,5.88
2022-07-28T18:55:27.426Z,7.15
2022-07-28T18:57:55.790Z,5.70
2022-07-28T19:00:23.605Z,5.80
2022-07-28T19:02:53.379Z,6.10
2022-07-28T19:05:21.234Z,5.68
2022-07-28T19:07:48.870Z,5.93
2022-07-28T19:10:18.124Z,5.80
2022-07-28T19:12:46.703Z,5.70
2022-07-28T19:15:15.235Z,6.00
2022-07-28T19:17:44.763Z,6.45
2022-07-28T19:20:12.457Z,6.80
2022-07-28T19:22:44.655Z,7.00
2022-07-28T19:25:12.335Z,7.25
2022-07-28T19:27:40.150Z,6.75
2022-07-28T19:30:08.938Z,7.13
2022-07-28T19:32:41.863Z,7.18
2022-07-28T19:35:10.473Z,6.45
2022-07-28T19:37:39.506Z,6.53
2022-07-28T19:40:07.879Z,6.93
2022-07-28T19:42:35.529Z,7.50
2022-07-28T19:45:08.650Z,6.55
2022-07-28T19:47:37.384Z,9.13
2022-07-28T19:50:05.602Z,8.45
2022-07-28T19:52:34.933Z,9.80
2022-07-28T19:55:06.159Z,10.43
2022-07-28T19:57:34.686Z,8.32
2022-07-28T20:00:02.501Z,7.82
2022-07-28T20:02:39.569Z,7.60
2022-07-28T20:05:08.418Z,7.70
2022-07-28T20:07:36.461Z,8.20
2022-07-28T20:10:05.265Z,8.20
2022-07-28T20:12:36.680Z,8.13
2022-07-28T20:15:06.111Z,8.65
2022-07-28T20:17:41.179Z,9.65
2022-07-28T20:20:09.845Z,8.60
2022-07-28T20:22:41.287Z,8.90
2022-07-28T20:25:10.026Z,9.18
2022-07-28T20:27:40.243Z,10.20
2022-07-28T20:30:12.587Z,9.13
2022-07-28T20:32:42.277Z,9.52
2022-07-28T20:35:11.071Z,9.85
2022-07-28T20:37:40.759Z,10.05
2022-07-28T20:40:09.159Z,10.20
2022-07-28T20:42:37.252Z,10.15
2022-07-28T20:45:05.606Z,10.57
2022-07-28T20:47:33.979Z,9.73
2022-07-28T20:50:01.798Z,9.85
2022-07-28T20:52:30.993Z,9.73
2022-07-28T20:54:58.799Z,9.70
2022-07-28T20:57:26.582Z,10.57
2022-07-28T20:59:54.317Z,9.98
2022-07-28T21:02:23.146Z,9.85
2022-07-28T21:04:51.903Z,10.13
2022-07-28T21:08:00.504Z,10.15
2022-07-28T21:10:11.087Z,9.93
2022-07-28T21:12:39.541Z,10.00
2022-07-28T21:15:07.898Z,9.80
2022-07-28T21:17:36.057Z,10.32
2022-07-28T21:20:04.963Z,9.88
2022-07-28T21:22:32.737Z,9.65
2022-07-28T21:25:00.645Z,8.73
2022-07-28T21:27:48.207Z,8.07
2022-07-28T21:30:16.646Z,8.57
2022-07-28T21:32:44.387Z,8.52
2022-07-28T21:35:14.300Z,7.72
2022-07-28T21:37:42.820Z,7.10
2022-07-28T21:40:14.113Z,7.35
2022-07-28T21:42:42.468Z,7.68
2022-07-28T21:45:12.120Z,6.35
2022-07-28T21:47:40.706Z,6.13
2022-07-28T21:50:10.926Z,6.80
2022-07-28T21:52:39.557Z,6.22
2022-07-28T21:55:08.107Z,6.10
2022-07-28T21:57:36.365Z,6.10
2022-07-28T22:00:07.444Z,6.00
2022-07-28T22:02:38.380Z,5.78
2022-07-28T22:05:09.263Z,5.93
2022-07-28T22:07:37.486Z,5.65
2022-07-28T22:10:05.786Z,5.47
2022-07-28T22:12:33.566Z,5.05
2022-07-28T22:15:01.161Z,4.65
2022-07-28T22:17:28.935Z,5.30
2022-07-28T22:19:57.098Z,5.38
2022-07-28T22:22:24.947Z,4.57
2022-07-28T22:24:52.551Z,4.70
2022-07-28T22:27:20.320Z,4.40
2022-07-28T22:29:52.211Z,4.55
2022-07-28T22:32:28.777Z,4.60
2022-07-28T22:34:58.178Z,4.53
2022-07-28T22:37:25.866Z,4.75
2022-07-28T22:39:53.864Z,4.15
2022-07-28T22:42:21.554Z,3.95
2022-07-28T22:44:49.123Z,3.92
2022-07-28T22:47:17.024Z,3.90
2022-07-28T22:49:45.485Z,3.97
2022-07-28T22:52:13.165Z,4.25
2022-07-28T22:54:40.887Z,3.60
2022-07-28T22:57:08.547Z,3.28
2022-07-28T22:59:39.841Z,4.05
2022-07-28T23:02:09.638Z,4.00
2022-07-28T23:04:40.242Z,3.13
2022-07-28T23:07:14.982Z,3.40
2022-07-28T23:09:43.103Z,3.40
2022-07-28T23:12:11.545Z,3.47
2022-07-28T23:14:39.406Z,3.50
2022-07-28T23:17:07.213Z,3.40
2022-07-28T23:19:35.156Z,3.42
2022-07-28T23:22:05.999Z,3.90
2022-07-28T23:24:34.271Z,3.35
2022-07-28T23:27:01.905Z,3.47
2022-07-28T23:29:29.652Z,3.63
2022-07-28T23:32:00.032Z,3.60
2022-07-28T23:34:28.393Z,3.70
2022-07-28T23:36:56.318Z,3.75
2022-07-28T23:39:24.812Z,3.72
2022-07-28T23:41:52.646Z,3.53
2022-07-28T23:44:20.332Z,3.67
2022-07-28T23:46:48.388Z,3.83
2022-07-28T23:49:17.040Z,4.00
2022-07-28T23:51:47.403Z,3.85
2022-07-28T23:54:17.983Z,3.60
2022-07-28T23:56:46.685Z,3.47
2022-07-28T23:59:14.921Z,3.20
